createdAt,value
2022-10-11T00:00:41.202Z,97121.97
2022-10-11T00:03:09.539Z,97133.56
2022-10-11T00:05:37.864Z,97127.09
2022-10-11T00:08:06.571Z,97130.47
2022-10-11T00:10:35.357Z,97129.75
2022-10-11T00:13:05.216Z,97134.72
2022-10-11T00:15:34.176Z,97137.53
2022-10-11T00:18:05.270Z,97141.97
2022-10-11T00:20:33.505Z,97142.25
2022-10-11T00:23:01.406Z,97147.94
2022-10-11T00:25:29.433Z,97149.75
2022-10-11T00:27:57.659Z,97153.25
2022-10-11T00:30:27.067Z,97142.75
2022-10-11T00:32:55.038Z,97150.47
2022-10-11T00:35:23.000Z,97139.13
2022-10-11T00:37:50.965Z,97145.28
2022-10-11T00:40:21.064Z,97139.97
2022-10-11T00:42:48.982Z,97151.31
2022-10-11T00:45:59.364Z,97151.53
2022-10-11T00:48:37.349Z,97152.50
2022-10-11T00:51:11.305Z,97152.66
2022-10-11T00:53:39.434Z,97150.94
2022-10-11T00:56:11.161Z,97150.00
2022-10-11T00:58:39.968Z,97154.44
2022-10-11T01:01:08.502Z,97159.75
2022-10-11T01:03:39.807Z,97159.75
2022-10-11T01:06:08.413Z,97157.09
2022-10-11T01:08:37.060Z,97156.41
2022-10-11T01:11:05.284Z,97153.84
2022-10-11T01:13:41.656Z,97159.28
2022-10-11T01:16:16.481Z,97154.97
2022-10-11T01:18:55.164Z,97161.38
2022-10-11T01:21:36.769Z,97163.31
2022-10-11T01:24:38.938Z,97154.63
2022-10-11T01:27:31.398Z,97157.16
2022-10-11T01:30:15.834Z,97159.09
2022-10-11T01:32:51.599Z,97163.56
2022-10-11T01:35:25.414Z,97160.03
2022-10-11T01:38:00.751Z,97159.31
2022-10-11T01:40:34.498Z,97164.41
2022-10-11T01:43:04.603Z,97154.88
2022-10-11T01:48:47.177Z,97151.13
2022-10-11T01:51:16.110Z,97150.41
2022-10-11T01:54:05.815Z,97154.00
2022-10-11T01:56:59.836Z,97153.31
2022-10-11T01:59:43.925Z,97150.66
2022-10-11T02:02:28.014Z,97154.16
2022-10-11T02:05:04.368Z,97153.56
2022-10-11T02:07:41.248Z,97147.41
2022-10-11T02:10:16.872Z,97149.94
2022-10-11T02:12:50.085Z,97148.97
2022-10-11T02:15:20.190Z,97149.22
2022-10-11T02:17:52.208Z,97146.47
2022-10-11T02:20:25.909Z,97149.13
2022-10-11T02:23:00.789Z,97149.94
2022-10-11T02:25:33.527Z,97150.91
2022-10-11T02:28:05.367Z,97149.94
2022-10-11T02:30:34.237Z,97149.81
2022-10-11T02:33:04.835Z,97150.66
2022-10-11T02:35:40.403Z,97148.84
2022-10-11T02:38:17.528Z,97153.44
2022-10-11T02:40:48.711Z,97155.97
2022-10-11T02:43:24.864Z,97152.34
2022-10-11T02:45:57.377Z,97155.13
2022-10-11T02:48:27.506Z,97151.34
2022-10-11T02:50:58.280Z,97147.16
2022-10-11T02:53:27.860Z,97151.34
2022-10-11T02:55:56.718Z,97150.53
2022-10-11T02:58:25.334Z,97144.38
2022-10-11T03:00:53.365Z,97143.66
2022-10-11T03:03:21.547Z,97152.47
2022-10-11T03:05:49.495Z,97162.25
2022-10-11T03:08:19.054Z,97157.91
2022-10-11T03:10:46.933Z,97159.72
2022-10-11T03:13:18.109Z,97159.25
2022-10-11T03:16:01.921Z,97163.38
2022-10-11T03:18:31.221Z,97164.47
2022-10-11T03:20:59.074Z,97166.75
2022-10-11T03:23:28.388Z,97170.59
2022-10-11T03:25:56.610Z,97170.75
2022-10-11T03:28:24.561Z,97181.09
2022-10-11T03:30:53.431Z,97182.31
2022-10-11T03:33:21.314Z,97183.75
2022-10-11T03:35:50.166Z,97184.25
2022-10-11T03:38:20.701Z,97182.47
2022-10-11T03:40:50.567Z,97185.69
2022-10-11T03:43:19.133Z,97184.63
2022-10-11T03:45:47.021Z,97186.22
2022-10-11T03:48:15.000Z,97185.34
2022-10-11T03:50:43.202Z,97183.66
2022-10-11T03:53:11.111Z,97185.50
2022-10-11T03:55:40.112Z,97188.00
2022-10-11T03:58:09.975Z,97186.91
2022-10-11T04:00:38.753Z,97188.72
2022-10-11T04:03:06.699Z,97190.53
2022-10-11T04:05:34.727Z,97186.44
2022-10-11T04:08:02.645Z,97193.31
2022-10-11T04:10:31.070Z,97197.31
2022-10-11T04:12:59.140Z,97196.81
2022-10-11T04:15:28.550Z,97193.44
2022-10-11T04:17:56.451Z,97199.34
2022-10-11T04:20:24.461Z,97192.47
2022-10-11T04:22:52.553Z,97197.66
2022-10-11T04:25:20.452Z,97207.66
2022-10-11T04:27:48.623Z,97196.09
2022-10-11T04:30:17.408Z,97202.34
2022-10-11T04:32:46.694Z,97201.53
2022-10-11T04:35:14.605Z,97200.69
2022-10-11T04:37:42.551Z,97198.88
2022-10-11T04:40:11.875Z,97197.31
2022-10-11T04:42:39.750Z,97200.94
2022-10-11T04:45:09.455Z,97195.75
2022-10-11T04:47:38.035Z,97202.88
2022-10-11T04:50:08.220Z,97206.72
2022-10-11T04:52:36.591Z,97208.28
2022-10-11T04:55:05.013Z,97215.63
2022-10-11T04:57:32.910Z,97212.97
2022-10-11T05:00:00.795Z,97218.78
2022-10-11T05:02:28.743Z,97228.91
2022-10-11T05:04:56.832Z,97218.19
2022-10-11T05:07:26.110Z,97228.78
2022-10-11T05:09:54.597Z,97231.56
2022-10-11T05:12:22.647Z,97223.38
2022-10-11T05:14:50.561Z,97229.63
2022-10-11T05:17:18.451Z,97229.63
2022-10-11T05:19:46.407Z,97226.97
2022-10-11T05:22:14.306Z,97226.75
2022-10-11T05:24:43.548Z,97238.09
2022-10-11T05:27:11.516Z,97231.69
2022-10-11T05:29:39.419Z,97243.25
2022-10-11T05:32:07.325Z,97238.31
2022-10-11T05:34:35.278Z,97244.97
2022-10-11T05:37:03.167Z,97248.44
2022-10-11T05:39:31.222Z,97244.34
2022-10-11T05:42:00.663Z,97246.63
2022-10-11T05:44:28.594Z,97250.13
2022-10-11T05:46:56.457Z,97247.72
2022-10-11T05:49:24.389Z,97251.94
2022-10-11T05:51:52.288Z,97262.56
2022-10-11T05:54:20.156Z,97265.09
2022-10-11T05:56:48.488Z,97272.59
2022-10-11T05:59:17.743Z,97267.88
2022-10-11T06:01:45.717Z,97270.41
2022-10-11T06:04:14.924Z,97279.31
2022-10-11T06:06:42.916Z,97280.28
2022-10-11T06:09:10.875Z,97289.81
2022-10-11T06:11:41.286Z,97285.72
2022-10-11T06:14:09.826Z,97287.53
2022-10-11T06:16:39.357Z,97286.81
2022-10-11T06:19:07.888Z,97289.34
2022-10-11T06:21:36.401Z,97291.00
2022-10-11T06:24:04.677Z,97290.91
2022-10-11T06:26:32.665Z,97297.19
2022-10-11T06:29:00.620Z,97289.09
2022-10-11T06:31:28.544Z,97294.28
2022-10-11T06:33:59.005Z,97299.84
2022-10-11T06:36:27.132Z,97304.91
2022-10-11T06:38:56.160Z,97307.56
2022-10-11T06:41:26.410Z,97312.13
2022-10-11T06:43:54.487Z,97317.69
2022-10-11T06:46:24.783Z,97318.16
2022-10-11T06:48:52.698Z,97313.81
2022-10-11T06:51:23.666Z,97319.00
2022-10-11T06:53:52.770Z,97321.06
2022-10-11T06:56:20.744Z,97322.03
2022-10-11T06:58:48.817Z,97323.72
2022-10-11T07:01:20.083Z,97319.84
2022-10-11T07:03:49.096Z,97327.06
2022-10-11T07:06:19.655Z,97328.78
2022-10-11T07:08:49.660Z,97337.00
2022-10-11T07:11:18.851Z,97339.41
2022-10-11T07:13:50.912Z,97339.50
2022-10-11T07:16:20.067Z,97341.31
2022-10-11T07:18:48.044Z,97352.19
2022-10-11T07:21:17.148Z,97355.56
2022-10-11T07:23:45.403Z,97356.25
2022-10-11T07:26:14.695Z,97357.25
2022-10-11T07:28:42.926Z,97354.34
2022-10-11T07:31:13.954Z,97360.63
2022-10-11T07:33:41.779Z,97364.38
2022-10-11T07:36:10.916Z,97369.44
2022-10-11T07:38:40.233Z,97366.19
2022-10-11T07:41:09.329Z,97364.75
2022-10-11T07:43:39.539Z,97366.91
2022-10-11T07:46:08.281Z,97358.56
2022-10-11T07:48:37.573Z,97362.81
2022-10-11T07:51:07.261Z,97360.53
2022-10-11T07:53:39.667Z,97362.91
2022-10-11T07:56:08.891Z,97366.09
2022-10-11T07:58:38.529Z,97363.66
2022-10-11T08:01:07.244Z,97366.66
2022-10-11T08:03:35.528Z,97364.38
2022-10-11T08:06:05.852Z,97361.63
2022-10-11T08:08:34.040Z,97362.72
2022-10-11T08:11:02.008Z,97364.50
2022-10-11T08:13:30.089Z,97366.94
2022-10-11T08:15:59.373Z,97365.22
2022-10-11T08:18:27.448Z,97368.13
2022-10-11T08:20:55.292Z,97367.16
2022-10-11T08:23:23.253Z,97362.09
2022-10-11T08:25:51.186Z,97369.44
2022-10-11T08:28:19.156Z,97370.31
2022-10-11T08:30:50.191Z,97372.72
2022-10-11T08:33:20.301Z,97378.28
2022-10-11T08:35:48.843Z,97380.94
2022-10-11T08:38:16.852Z,97375.13
2022-10-11T08:40:48.284Z,97373.91
2022-10-11T08:43:27.897Z,97372.81
2022-10-11T08:45:59.186Z,97384.53
2022-10-11T08:48:35.275Z,97382.59
2022-10-11T08:51:08.134Z,97381.16
2022-10-11T08:53:45.328Z,97377.03
2022-10-11T08:56:15.071Z,97379.47
2022-10-11T08:58:48.428Z,97385.63
2022-10-11T09:01:21.699Z,97376.56
2022-10-11T09:03:52.053Z,97384.53
2022-10-11T09:06:37.775Z,97382.63
2022-10-11T09:09:22.383Z,97379.94
2022-10-11T09:12:02.044Z,97379.47
2022-10-11T09:14:52.269Z,97387.31
2022-10-11T09:17:37.353Z,97383.59
2022-10-11T09:20:32.907Z,97384.28
2022-10-11T09:23:05.792Z,97391.16
2022-10-11T09:25:36.439Z,97391.31
2022-10-11T09:28:16.344Z,97392.38
2022-10-11T09:30:49.569Z,97393.72
2022-10-11T09:33:23.905Z,97385.63
2022-10-11T09:35:53.813Z,97387.31
2022-10-11T09:38:39.819Z,97384.78
2022-10-11T09:41:16.245Z,97384.22
2022-10-11T09:43:48.600Z,97388.28
2022-10-11T09:46:23.007Z,97385.63
2022-10-11T09:48:54.489Z,97398.91
2022-10-11T09:51:27.013Z,97396.63
2022-10-11T09:53:58.272Z,97391.16
2022-10-11T09:56:28.708Z,97401.94
2022-10-11T09:59:17.108Z,97398.53
2022-10-11T10:01:45.509Z,97392.63
2022-10-11T10:04:16.906Z,97397.56
2022-10-11T10:06:46.497Z,97399.28
2022-10-11T10:09:26.015Z,97396.72
2022-10-11T10:11:54.479Z,97388.66
2022-10-11T10:14:25.708Z,97401.09
2022-10-11T10:17:06.869Z,97402.66
2022-10-11T10:19:44.966Z,97403.59
2022-10-11T10:22:20.207Z,97407.34
2022-10-11T10:24:50.350Z,97407.25
2022-10-11T10:27:22.127Z,97407.97
2022-10-11T10:30:17.135Z,97410.72
2022-10-11T10:32:52.227Z,97410.72
2022-10-11T10:35:31.602Z,97401.78
2022-10-11T10:38:09.818Z,97403.13
2022-10-11T10:40:43.789Z,97403.97
2022-10-11T10:43:17.401Z,97397.50
2022-10-11T10:46:10.654Z,97403.84
2022-10-11T10:51:44.309Z,97403.28
2022-10-11T10:54:25.486Z,97396.13
2022-10-11T10:56:56.445Z,97393.22
2022-10-11T10:59:43.929Z,97394.41
2022-10-11T11:02:39.002Z,97388.88
2022-10-11T11:05:18.766Z,97382.09
2022-10-11T11:07:52.711Z,97387.88
2022-10-11T11:10:25.551Z,97384.97
2022-10-11T11:13:07.400Z,97389.31
2022-10-11T11:15:40.224Z,97385.69
2022-10-11T11:18:22.593Z,97380.13
2022-10-11T11:21:06.288Z,97382.66
2022-10-11T11:23:41.787Z,97383.38
2022-10-11T11:26:19.596Z,97382.75
2022-10-11T11:28:58.972Z,97370.16
2022-10-11T11:31:45.509Z,97377.56
2022-10-11T11:34:21.713Z,97375.75
2022-10-11T11:36:55.880Z,97376.25
2022-10-11T11:39:26.975Z,97369.75
2022-10-11T11:42:00.942Z,97382.53
2022-10-11T11:44:32.280Z,97380.72
2022-10-11T11:47:04.642Z,97377.59
2022-10-11T11:49:37.034Z,97374.56
2022-10-11T11:52:06.757Z,97367.31
2022-10-11T11:54:45.637Z,97369.00
2022-10-11T11:57:25.402Z,97366.22
2022-10-11T12:00:00.477Z,97370.44
2022-10-11T12:02:42.473Z,97371.66
2022-10-11T12:05:12.572Z,97375.41
2022-10-11T12:07:54.039Z,97375.66
2022-10-11T12:10:29.068Z,97370.91
2022-10-11T12:13:09.708Z,97364.41
2022-10-11T12:15:38.841Z,97364.66
2022-10-11T12:18:16.252Z,97363.19
2022-10-11T12:20:45.364Z,97368.00
2022-10-11T12:23:41.948Z,97362.84
2022-10-11T12:26:39.021Z,97371.19
2022-10-11T12:29:28.720Z,97364.88
2022-10-11T12:32:48.063Z,97366.31
2022-10-11T12:36:04.003Z,97360.28
2022-10-11T12:38:37.884Z,97360.81
2022-10-11T12:41:50.342Z,97363.22
2022-10-11T12:44:26.302Z,97363.31
2022-10-11T12:47:26.212Z,97364.41
2022-10-11T12:50:08.880Z,97367.19
2022-10-11T12:52:42.960Z,97357.16
2022-10-11T12:55:26.587Z,97360.56
2022-10-11T12:58:25.535Z,97350.88
2022-10-11T13:01:18.702Z,97354.50
2022-10-11T13:03:52.995Z,97359.94
2022-10-11T13:06:24.906Z,97349.09
2022-10-11T13:08:57.050Z,97356.06
2022-10-11T13:11:30.912Z,97343.13
2022-10-11T13:14:01.674Z,97340.59
2022-10-11T13:16:46.623Z,97343.59
2022-10-11T13:19:15.711Z,97336.09
2022-10-11T13:21:44.319Z,97333.22
2022-10-11T13:24:15.916Z,97328.72
2022-10-11T13:26:45.477Z,97338.53
2022-10-11T13:29:18.087Z,97334.88
2022-10-11T13:31:49.231Z,97344.75
2022-10-11T13:34:22.352Z,97339.44
2022-10-11T13:36:56.516Z,97331.84
2022-10-11T13:39:31.221Z,97332.31
2022-10-11T13:42:00.963Z,97333.16
2022-10-11T13:44:29.226Z,97331.09
2022-10-11T13:46:58.759Z,97337.22
2022-10-11T13:49:31.737Z,97333.97
2022-10-11T13:52:00.926Z,97338.41
2022-10-11T13:55:09.134Z,97337.47
2022-10-11T13:57:40.308Z,97322.22
2022-10-11T14:00:23.680Z,97324.16
2022-10-11T14:02:58.016Z,97325.38
2022-10-11T14:05:31.435Z,97323.56
2022-10-11T14:08:01.901Z,97321.94
2022-10-11T14:10:30.244Z,97323.88
2022-10-11T14:13:23.162Z,97324.16
2022-10-11T14:16:01.147Z,97338.03
2022-10-11T14:18:42.358Z,97328.03
2022-10-11T14:21:27.741Z,97332.53
2022-10-11T14:23:57.360Z,97319.34
2022-10-11T14:26:26.876Z,97329.25
2022-10-11T14:28:59.005Z,97332.38
2022-10-11T14:31:30.745Z,97330.50
2022-10-11T14:34:00.291Z,97323.22
2022-10-11T14:36:28.263Z,97328.41
2022-10-11T14:38:56.356Z,97326.88
2022-10-11T14:41:25.013Z,97317.66
2022-10-11T14:43:56.287Z,97320.81
2022-10-11T14:46:26.078Z,97317.44
2022-10-11T14:48:56.314Z,97317.22
2022-10-11T14:51:28.657Z,97317.91
2022-10-11T14:53:56.556Z,97317.06
2022-10-11T14:56:24.477Z,97316.88
2022-10-11T14:58:52.427Z,97315.25
2022-10-11T15:01:20.364Z,97314.56
2022-10-11T15:03:48.268Z,97300.28
2022-10-11T15:06:21.642Z,97315.72
2022-10-11T15:08:51.513Z,97290.81
2022-10-11T15:11:21.072Z,97305.78
2022-10-11T15:13:49.854Z,97301.00
2022-10-11T15:16:20.852Z,97302.53
2022-10-11T15:18:50.926Z,97296.41
2022-10-11T15:21:20.507Z,97304.03
2022-10-11T15:23:51.781Z,97298.44
2022-10-11T15:26:22.023Z,97303.78
2022-10-11T15:28:51.113Z,97299.56
2022-10-11T15:31:19.727Z,97302.94
2022-10-11T15:33:48.140Z,97304.31
2022-10-11T15:36:20.095Z,97307.06
2022-10-11T15:38:50.436Z,97308.25
2022-10-11T15:41:20.376Z,97301.94
2022-10-11T15:43:50.167Z,97297.63
2022-10-11T15:46:22.081Z,97307.06
2022-10-11T15:48:50.687Z,97309.75
2022-10-11T15:51:18.810Z,97304.34
2022-10-11T15:53:46.726Z,97311.47
2022-10-11T15:56:19.621Z,97309.28
2022-10-11T15:58:47.543Z,97308.44
2022-10-11T16:01:18.612Z,97315.09
2022-10-11T16:03:48.228Z,97306.69
2022-10-11T16:06:16.417Z,97311.19
2022-10-11T16:08:45.023Z,97309.81
2022-10-11T16:11:13.666Z,97311.75
2022-10-11T16:13:42.960Z,97312.63
2022-10-11T16:16:12.465Z,97303.94
2022-10-11T16:18:40.488Z,97310.34
2022-10-11T16:21:10.318Z,97303.59
2022-10-11T16:23:38.748Z,97303.84
2022-10-11T16:26:10.125Z,97309.00
2022-10-11T16:28:38.662Z,97307.34
2022-10-11T16:31:14.304Z,97309.16
2022-10-11T16:33:46.479Z,97312.31
2022-10-11T16:36:36.679Z,97315.22
2022-10-11T16:39:07.904Z,97309.91
2022-10-11T16:41:35.958Z,97305.69
2022-10-11T16:44:04.430Z,97310.41
2022-10-11T16:46:34.579Z,97311.59
2022-10-11T16:49:02.593Z,97309.47
2022-10-11T16:51:30.710Z,97319.09
2022-10-11T16:53:58.862Z,97314.78
2022-10-11T16:56:27.581Z,97324.41
2022-10-11T16:58:56.080Z,97313.78
2022-10-11T17:01:24.156Z,97310.19
2022-10-11T17:03:53.855Z,97312.09
2022-10-11T17:06:21.823Z,97320.19
2022-10-11T17:08:49.966Z,97322.38
2022-10-11T17:11:18.646Z,97320.69
2022-10-11T17:13:46.909Z,97318.50
2022-10-11T17:16:15.203Z,97316.69
2022-10-11T17:18:43.283Z,97318.03
2022-10-11T17:21:15.678Z,97317.22
2022-10-11T17:23:43.871Z,97322.50
2022-10-11T17:26:15.406Z,97324.81
2022-10-11T17:28:43.535Z,97319.25
2022-10-11T17:31:11.967Z,97320.94
2022-10-11T17:33:40.281Z,97317.69
2022-10-11T17:36:22.424Z,97316.00
2022-10-11T17:38:51.880Z,97316.00
2022-10-11T17:41:20.659Z,97324.91
2022-10-11T17:43:48.718Z,97316.97
2022-10-11T17:46:17.879Z,97321.78
2022-10-11T17:48:45.946Z,97322.63
2022-10-11T17:51:15.419Z,97328.81
2022-10-11T17:53:45.251Z,97326.63
2022-10-11T17:56:14.599Z,97327.22
2022-10-11T17:58:42.938Z,97329.88
2022-10-11T18:01:13.352Z,97334.22
2022-10-11T18:03:41.432Z,97342.44
2022-10-11T18:06:12.008Z,97336.25
2022-10-11T18:08:41.711Z,97335.53
2022-10-11T18:11:16.214Z,97337.13
2022-10-11T18:13:46.467Z,97328.19
2022-10-11T18:16:15.377Z,97331.09
2022-10-11T18:18:44.185Z,97323.84
2022-10-11T18:21:12.863Z,97323.13
2022-10-11T18:23:41.035Z,97328.44
2022-10-11T18:26:15.055Z,97321.56
2022-10-11T18:28:43.510Z,97314.19
2022-10-11T18:31:14.348Z,97312.50
2022-10-11T18:33:45.458Z,97317.94
2022-10-11T18:36:14.576Z,97319.84
2022-10-11T18:38:46.379Z,97316.63
2022-10-11T18:41:17.400Z,97318.28
2022-10-11T18:43:50.492Z,97323.50
2022-10-11T18:46:18.983Z,97312.97
2022-10-11T18:48:49.080Z,97316.63
2022-10-11T18:51:19.332Z,97313.97
2022-10-11T18:53:48.241Z,97309.59
2022-10-11T18:56:20.601Z,97306.00
2022-10-11T18:58:49.933Z,97316.00
2022-10-11T19:01:20.403Z,97317.69
2022-10-11T19:03:52.362Z,97314.44
2022-10-11T19:06:22.143Z,97312.88
2022-10-11T19:08:51.338Z,97312.75
2022-10-11T19:11:22.205Z,97310.09
2022-10-11T19:13:56.207Z,97317.44
2022-10-11T19:16:24.247Z,97313.81
2022-10-11T19:18:53.033Z,97313.94
2022-10-11T19:21:21.190Z,97316.47
2022-10-11T19:23:50.162Z,97314.78
2022-10-11T19:26:22.386Z,97311.41
2022-10-11T19:28:55.991Z,97319.38
2022-10-11T19:31:24.256Z,97321.19
2022-10-11T19:33:52.206Z,97313.56
2022-10-11T19:36:20.171Z,97319.63
2022-10-11T19:38:49.666Z,97315.50
2022-10-11T19:41:19.673Z,97317.22
2022-10-11T19:43:49.250Z,97313.56
2022-10-11T19:46:32.378Z,97315.50
2022-10-11T19:49:08.725Z,97323.47
2022-10-11T19:51:38.157Z,97319.97
2022-10-11T19:54:08.202Z,97321.06
2022-10-11T19:56:36.818Z,97315.03
2022-10-11T19:59:07.375Z,97319.34
2022-10-11T20:01:36.711Z,97323.72
2022-10-11T20:04:07.303Z,97321.91
2022-10-11T20:06:38.771Z,97317.31
2022-10-11T20:11:55.196Z,97313.81
2022-10-11T20:14:24.606Z,97319.13
2022-10-11T20:16:52.734Z,97320.69
2022-10-11T20:19:24.851Z,97321.66
2022-10-11T20:21:55.676Z,97322.50
2022-10-11T20:24:23.566Z,97317.91
2022-10-11T20:26:51.435Z,97324.19
2022-10-11T20:29:19.351Z,97327.69
2022-10-11T20:31:48.590Z,97316.13
2022-10-11T20:34:16.474Z,97323.09
2022-10-11T20:36:48.933Z,97323.94
2022-10-11T20:39:17.826Z,97328.31
2022-10-11T20:41:46.206Z,97325.75
2022-10-11T20:44:16.019Z,97318.06
2022-10-11T20:46:43.911Z,97320.34
2022-10-11T20:49:13.538Z,97321.19
2022-10-11T20:51:42.741Z,97328.16
2022-10-11T20:54:11.773Z,97323.72
2022-10-11T20:56:39.791Z,97329.97
2022-10-11T20:59:07.767Z,97322.16
2022-10-11T21:01:37.728Z,97325.88
2022-10-11T21:04:07.489Z,97327.31
2022-10-11T21:06:36.795Z,97332.38
2022-10-11T21:09:05.026Z,97329.88
2022-10-11T21:11:35.056Z,97323.94
2022-10-11T21:14:04.923Z,97323.94
2022-10-11T21:16:33.666Z,97328.31
2022-10-11T21:19:02.794Z,97322.03
2022-10-11T21:21:31.679Z,97322.75
2022-10-11T21:24:03.155Z,97321.91
2022-10-11T21:26:31.515Z,97320.09
2022-10-11T21:29:00.221Z,97313.81
2022-10-11T21:31:32.941Z,97313.94
2022-10-11T21:34:02.038Z,97307.91
2022-10-11T21:36:29.883Z,97316.84
2022-10-11T21:38:57.802Z,97317.69
2022-10-11T21:41:29.119Z,97315.88
2022-10-11T21:43:57.214Z,97312.97
2022-10-11T21:46:47.584Z,97314.06
2022-10-11T21:49:15.272Z,97308.75
2022-10-11T21:51:43.237Z,97309.59
2022-10-11T21:54:11.135Z,97309.72
2022-10-11T21:56:40.427Z,97306.94
2022-10-11T21:59:11.278Z,97305.25
2022-10-11T22:01:40.929Z,97307.81
2022-10-11T22:04:08.996Z,97301.63
2022-10-11T22:06:37.863Z,97300.53
2022-10-11T22:09:06.499Z,97305.00
2022-10-11T22:11:34.422Z,97307.81
2022-10-11T22:14:04.058Z,97310.56
2022-10-11T22:16:33.469Z,97301.63
2022-10-11T22:19:01.334Z,97298.97
2022-10-11T22:21:29.251Z,97311.66
2022-10-11T22:23:57.546Z,97299.47
2022-10-11T22:26:29.811Z,97304.78
2022-10-11T22:28:58.222Z,97307.19
2022-10-11T22:31:27.830Z,97301.28
2022-10-11T22:33:56.267Z,97293.34
2022-10-11T22:36:25.181Z,97288.03
2022-10-11T22:38:54.554Z,97290.44
2022-10-11T22:41:22.469Z,97287.88
2022-10-11T22:43:50.987Z,97288.97
2022-10-11T22:46:19.210Z,97295.13
2022-10-11T22:48:49.056Z,97287.75
2022-10-11T22:51:17.034Z,97294.63
2022-10-11T22:53:45.058Z,97293.78
2022-10-11T22:56:12.992Z,97293.06
2022-10-11T22:58:40.847Z,97287.03
2022-10-11T23:01:10.102Z,97286.09
2022-10-11T23:03:38.164Z,97292.22
2022-10-11T23:06:07.879Z,97285.34
2022-10-11T23:08:35.758Z,97291.59
2022-10-11T23:11:05.006Z,97294.25
2022-10-11T23:13:32.895Z,97288.38
2022-10-11T23:16:00.931Z,97285.56
2022-10-11T23:18:28.931Z,97283.06
2022-10-11T23:21:00.350Z,97277.88
2022-10-11T23:23:29.695Z,97277.75
2022-10-11T23:26:05.839Z,97282.22
2022-10-11T23:28:34.104Z,97278.84
2022-10-11T23:31:06.500Z,97281.34
2022-10-11T23:33:34.490Z,97277.03
2022-10-11T23:36:02.687Z,97281.50
2022-10-11T23:38:32.541Z,97271.84
2022-10-11T23:41:00.501Z,97279.06
2022-10-11T23:43:28.628Z,97273.75
2022-10-11T23:45:57.299Z,97272.19
2022-10-11T23:48:25.281Z,97267.97
2022-10-11T23:50:53.188Z,97274.13
2022-10-11T23:53:21.068Z,97276.06
2022-10-11T23:55:50.400Z,97273.53
2022-10-11T23:58:18.277Z,97268.31
